Time;durP1;ratioP1;P1;durP2;ratioP2;P2;SDS_P1;SDS_P2;PMS_P1;PMS_P2;Temp;Humidity;BMP_temperature;BMP_pressure;BME280_temperature;BME280_humidity;BME280_pressure;Samples;Min_cycle;Max_cycle;Signal;HPM_P1;HPM_P2
2023/08/31 00:01:19;;;;;;;8.07;2.30;;;;;;;21.96;47.92;94098.94;4203911;28;20052;-75
2023/08/31 00:03:21;;;;;;;8.15;2.58;;;;;;;21.98;47.74;94101.34;4194962;28;20053;-75
2023/08/31 00:05:24;;;;;;;5.60;2.30;;;;;;;22.04;47.46;94106.50;4194361;28;20122;-76
2023/08/31 00:07:26;;;;;;;6.30;2.63;;;;;;;22.11;47.46;94102.88;4194570;28;20079;-74
2023/08/31 00:09:29;;;;;;;5.72;2.00;;;;;;;22.15;47.59;94102.13;4200262;28;20079;-78
2023/08/31 00:11:31;;;;;;;5.93;2.05;;;;;;;22.13;47.44;94108.75;4176510;28;20437;-75
2023/08/31 00:13:33;;;;;;;5.18;2.33;;;;;;;22.16;47.17;94110.97;4183884;28;20125;-77
2023/08/31 00:15:35;;;;;;;8.15;2.50;;;;;;;22.12;47.68;94104.50;4193336;28;20058;-76
2023/08/31 00:17:37;;;;;;;7.53;2.67;;;;;;;22.12;47.37;94102.63;4193171;28;20139;-76
2023/08/31 00:19:39;;;;;;;6.20;2.53;;;;;;;22.14;47.40;94100.53;4171865;28;20045;-75
2023/08/31 00:21:41;;;;;;;7.70;2.30;;;;;;;22.15;47.22;94096.78;4193155;28;20139;-77
2023/08/31 00:23:43;;;;;;;5.63;2.30;;;;;;;22.19;47.52;94091.78;4175304;28;20045;-75
2023/08/31 00:25:47;;;;;;;6.35;2.30;;;;;;;22.19;47.33;94099.78;4168560;28;20128;-76
2023/08/31 00:27:53;;;;;;;6.18;2.00;;;;;;;22.20;47.25;94099.53;4171885;28;20045;-76
2023/08/31 00:29:55;;;;;;;5.68;2.17;;;;;;;22.17;47.65;94100.03;4192398;28;20609;-75
2023/08/31 00:31:57;;;;;;;4.20;1.95;;;;;;;22.15;47.65;94110.13;4193380;28;20075;-77
2023/08/31 00:34:00;;;;;;;9.40;2.30;;;;;;;22.15;47.91;94110.13;4175086;28;20400;-76
2023/08/31 00:36:03;;;;;;;7.60;2.30;;;;;;;22.14;47.72;94115.72;4191665;28;20220;-75
2023/08/31 00:38:05;;;;;;;5.75;2.30;;;;;;;21.85;48.45;94113.97;4191468;28;20056;-77
2023/08/31 00:40:08;;;;;;;4.95;2.35;;;;;;;21.66;48.95;94115.25;4190368;28;20459;-75
2023/08/31 00:42:10;;;;;;;4.80;2.25;;;;;;;21.59;49.16;94123.41;4193879;28;20351;-76
2023/08/31 00:44:12;;;;;;;5.20;2.28;;;;;;;21.45;49.66;94124.78;4200829;28;20072;-77
2023/08/31 00:46:14;;;;;;;5.65;2.50;;;;;;;21.38;49.87;94126.75;4194244;28;20137;-74
2023/08/31 00:48:17;;;;;;;6.90;2.53;;;;;;;21.29;50.36;94123.66;4170799;28;20361;-74
2023/08/31 00:50:19;;;;;;;8.73;2.55;;;;;;;21.24;50.25;94124.38;4188998;28;20448;-75
2023/08/31 00:52:21;;;;;;;5.05;2.50;;;;;;;21.16;50.48;94119.44;4177030;28;20300;-77
2023/08/31 00:54:23;;;;;;;5.20;2.55;;;;;;;20.82;51.33;94122.03;4185784;28;20345;-75
2023/08/31 00:56:26;;;;;;;5.07;2.58;;;;;;;20.84;51.67;94119.94;4172174;28;20130;-76
2023/08/31 00:58:28;;;;;;;6.73;2.70;;;;;;;20.92;51.32;94125.91;4190168;28;20044;-76
2023/08/31 01:00:55;;;;;;;5.95;2.70;;;;;;;20.97;51.23;94126.00;4190581;28;20294;-74
2023/08/31 01:03:01;;;;;;;8.15;2.63;;;;;;;21.14;50.83;94128.72;4162540;28;20049;-75
2023/08/31 01:05:06;;;;;;;5.15;2.50;;;;;;;21.28;50.48;94122.84;4178229;28;20152;-76
2023/08/31 01:07:26;;;;;;;6.18;2.15;;;;;;;21.43;50.15;94126.88;4169802;28;20064;-77
2023/08/31 01:09:36;;;;;;;5.55;2.55;;;;;;;21.54;49.91;94128.66;4208451;28;20058;-77
2023/08/31 01:11:51;;;;;;;4.60;2.42;;;;;;;21.62;49.75;94130.94;4188636;28;20444;-76
2023/08/31 01:14:05;;;;;;;4.85;2.60;;;;;;;21.67;49.55;94127.53;4160681;28;20068;-77
2023/08/31 01:16:07;;;;;;;;;;;;;;;21.64;49.91;94130.69;4157829;28;20527;-75
2023/08/31 01:18:11;;;;;;;5.95;2.47;;;;;;;21.54;49.68;94134.00;4194986;28;19963;-77
2023/08/31 01:20:17;;;;;;;7.30;2.67;;;;;;;21.30;50.23;94137.81;4192765;28;20045;-76
2023/08/31 01:22:43;;;;;;;6.18;2.30;;;;;;;21.37;50.26;94133.13;4174980;28;20055;-76
2023/08/31 01:24:45;;;;;;;6.70;2.30;;;;;;;21.43;50.00;94134.88;4181620;28;20111;-76
2023/08/31 01:26:47;;;;;;;8.80;2.90;;;;;;;21.50;49.79;94126.72;4178287;28;20049;-75
2023/08/31 01:28:50;;;;;;;6.95;2.50;;;;;;;21.60;49.59;94132.22;4174247;28;20380;-77
2023/08/31 01:30:52;;;;;;;6.10;2.60;;;;;;;21.62;49.55;94130.13;4194898;28;20092;-76
2023/08/31 01:32:54;;;;;;;6.32;2.40;;;;;;;21.51;49.80;94134.47;4195117;28;20480;-76
2023/08/31 01:34:57;;;;;;;5.88;2.53;;;;;;;21.46;50.30;94129.06;4197417;28;20097;-76
2023/08/31 01:37:02;;;;;;;7.38;2.58;;;;;;;21.41;50.31;94132.44;4191587;28;20048;-77
2023/08/31 01:39:12;;;;;;;5.53;2.80;;;;;;;21.47;50.02;94128.81;4177535;28;20183;-76
2023/08/31 01:41:17;;;;;;;6.63;2.45;;;;;;;21.52;49.85;94129.97;4183358;28;20177;-75
2023/08/31 01:43:21;;;;;;;5.40;2.40;;;;;;;21.55;49.90;94130.25;4177924;28;20049;-74
2023/08/31 01:45:24;;;;;;;5.82;2.53;;;;;;;21.58;49.93;94129.81;4172343;28;20397;-75
2023/08/31 01:47:27;;;;;;;4.85;2.40;;;;;;;21.63;49.81;94124.53;4156127;28;20124;-76
2023/08/31 01:49:28;;;;;;;6.07;2.85;;;;;;;21.62;50.03;94133.59;4189827;28;20131;-75
2023/08/31 01:51:30;;;;;;;6.72;2.35;;;;;;;21.45;50.31;94130.91;4190505;28;20062;-76
2023/08/31 01:53:32;;;;;;;4.68;2.47;;;;;;;21.35;50.47;94132.56;4194987;28;20487;-76
2023/08/31 01:55:33;;;;;;;8.13;2.75;;;;;;;21.32;50.99;94133.84;4170276;28;20430;-76
2023/08/31 01:57:35;;;;;;;12.57;3.13;;;;;;;21.30;50.84;94132.47;4193204;28;20381;-75
2023/08/31 01:59:38;;;;;;;6.05;3.05;;;;;;;21.18;51.11;94143.97;4194523;28;20048;-75
2023/08/31 02:01:39;;;;;;;6.63;2.80;;;;;;;21.16;51.38;94137.28;4169518;28;20418;-76
2023/08/31 02:03:41;;;;;;;6.90;2.67;;;;;;;21.17;51.21;94133.59;4189242;28;20457;-75
2023/08/31 02:05:43;;;;;;;6.32;2.80;;;;;;;21.16;51.45;94140.75;4179611;28;20420;-78
2023/08/31 02:07:45;;;;;;;7.35;2.90;;;;;;;21.18;51.11;94141.31;4194666;28;20112;-74
2023/08/31 02:09:47;;;;;;;5.70;2.60;;;;;;;21.27;50.83;94147.91;4174067;28;20050;-76
2023/08/31 02:11:49;;;;;;;5.28;2.60;;;;;;;21.30;50.86;94151.94;4188341;28;20216;-76
2023/08/31 02:13:52;;;;;;;5.57;2.72;;;;;;;21.35;50.53;94159.19;4176772;28;20053;-77
2023/08/31 02:15:53;;;;;;;7.43;2.65;;;;;;;21.38;50.49;94156.06;4194200;28;20405;-75
2023/08/31 02:17:55;;;;;;;6.28;2.60;;;;;;;21.40;50.53;94153.94;4169872;28;20059;-80
2023/08/31 02:19:57;;;;;;;8.38;2.60;;;;;;;21.43;50.25;94149.00;4175144;28;20059;-75
2023/08/31 02:21:59;;;;;;;8.15;2.47;;;;;;;21.44;50.68;94155.13;4193478;28;20518;-76
2023/08/31 02:24:01;;;;;;;8.68;2.42;;;;;;;21.42;50.93;94158.06;4205681;28;20090;-75
2023/08/31 02:26:03;;;;;;;5.80;2.15;;;;;;;21.44;50.46;94152.47;4189500;28;20117;-76
2023/08/31 02:28:05;;;;;;;6.18;2.30;;;;;;;21.45;50.44;94146.91;4179789;28;20059;-76
2023/08/31 02:30:08;;;;;;;3.88;2.00;;;;;;;21.40;50.38;94145.97;4184384;28;20416;-75
2023/08/31 02:32:10;;;;;;;5.35;2.67;;;;;;;21.40;50.15;94146.78;4195092;28;20044;-76
2023/08/31 02:34:12;;;;;;;4.03;2.17;;;;;;;21.36;50.58;94145.66;4187953;28;20049;-76
2023/08/31 02:36:14;;;;;;;7.53;2.92;;;;;;;21.37;50.38;94149.13;4195380;28;20044;-77
2023/08/31 02:38:17;;;;;;;7.38;2.53;;;;;;;21.36;50.26;94145.66;4195498;28;20078;-74
2023/08/31 02:40:20;;;;;;;7.15;2.72;;;;;;;21.30;50.57;94143.13;4193133;28;20064;-75
2023/08/31 02:42:22;;;;;;;9.13;2.83;;;;;;;21.24;50.79;94144.88;4194669;28;20159;-76
2023/08/31 02:44:24;;;;;;;4.97;2.20;;;;;;;21.26;50.64;94148.13;4194193;28;20044;-76
2023/08/31 02:46:26;;;;;;;6.97;2.50;;;;;;;21.27;50.31;94149.72;4192907;28;20044;-74
2023/08/31 02:48:29;;;;;;;6.68;2.70;;;;;;;21.27;50.21;94145.22;4176026;28;20127;-76
2023/08/31 02:50:31;;;;;;;;;;;;;;;21.28;50.28;94149.50;4201456;28;20056;-76
2023/08/31 02:52:33;;;;;;;5.53;2.40;;;;;;;21.26;50.36;94154.25;4200830;28;19924;-76
2023/08/31 02:54:35;;;;;;;5.70;2.30;;;;;;;21.22;50.34;94155.78;4181095;28;20051;-75
2023/08/31 02:56:36;;;;;;;6.65;2.67;;;;;;;21.23;50.37;94154.75;4192545;28;20064;-75
2023/08/31 02:58:38;;;;;;;5.18;2.50;;;;;;;21.25;50.27;94167.81;4175885;28;20076;-75
2023/08/31 03:00:42;;;;;;;4.60;2.60;;;;;;;21.23;50.42;94168.06;4193869;28;20048;-76
2023/08/31 03:02:44;;;;;;;5.95;2.58;;;;;;;21.20;50.32;94170.38;4183111;28;20426;-75
2023/08/31 03:04:46;;;;;;;5.35;2.35;;;;;;;21.20;50.58;94173.06;4193090;28;20076;-75
2023/08/31 03:06:48;;;;;;;6.55;2.42;;;;;;;21.19;50.47;94168.78;4197603;28;20074;-74
2023/08/31 03:08:49;;;;;;;6.18;2.90;;;;;;;21.18;50.57;94172.47;4200246;28;20053;-77
2023/08/31 03:10:53;;;;;;;5.18;2.58;;;;;;;21.19;50.54;94172.25;4191974;28;20232;-75
2023/08/31 03:12:54;;;;;;;6.43;3.05;;;;;;;21.17;50.67;94177.00;4190976;28;20170;-75
2023/08/31 03:14:56;;;;;;;6.38;2.75;;;;;;;21.17;50.72;94177.00;4191414;28;20274;-74
2023/08/31 03:16:58;;;;;;;6.85;2.75;;;;;;;21.14;50.87;94174.78;4193953;28;20330;-76
2023/08/31 03:18:59;;;;;;;6.47;2.63;;;;;;;21.12;50.63;94176.88;4193746;28;20048;-78
2023/08/31 03:21:01;;;;;;;5.57;3.20;;;;;;;21.11;50.91;94188.59;4191055;28;20045;-76
2023/08/31 03:23:03;;;;;;;7.40;2.80;;;;;;;21.09;51.32;94176.56;4192336;28;20128;-75
2023/08/31 03:25:05;;;;;;;6.72;3.10;;;;;;;21.09;51.33;94181.91;4194078;28;20353;-76
2023/08/31 03:27:07;;;;;;;6.45;2.92;;;;;;;21.10;51.36;94180.84;4194665;28;20522;-76
2023/08/31 03:29:09;;;;;;;7.13;3.25;;;;;;;21.12;51.27;94173.41;4193596;28;20361;-76
2023/08/31 03:31:11;;;;;;;5.82;2.75;;;;;;;21.12;51.76;94170.75;4197121;28;20053;-75
2023/08/31 03:33:13;;;;;;;10.13;3.03;;;;;;;21.09;51.67;94179.22;4206972;28;20057;-76
2023/08/31 03:35:15;;;;;;;7.78;2.70;;;;;;;20.98;51.53;94173.69;4191299;28;20052;-78
2023/08/31 03:37:17;;;;;;;12.40;3.28;;;;;;;20.88;51.77;94172.69;4193987;28;20259;-77
2023/08/31 03:39:18;;;;;;;8.20;3.13;;;;;;;20.81;52.39;94184.28;4193970;28;20107;-75
2023/08/31 03:41:20;;;;;;;7.18;3.20;;;;;;;20.84;51.95;94178.50;4197435;28;20045;-76
2023/08/31 03:43:22;;;;;;;5.47;2.60;;;;;;;20.86;52.10;94187.06;4179111;28;20045;-76
2023/08/31 03:45:24;;;;;;;7.65;3.30;;;;;;;20.90;51.86;94189.25;4201459;28;20064;-76
2023/08/31 03:47:26;;;;;;;8.27;2.90;;;;;;;20.89;52.01;94185.78;4193048;28;20055;-74
2023/08/31 03:49:27;;;;;;;9.40;3.20;;;;;;;20.86;52.02;94189.72;4182236;28;20160;-75
2023/08/31 03:51:29;;;;;;;6.68;3.00;;;;;;;20.85;51.97;94190.75;4175241;28;20049;-77
2023/08/31 03:53:31;;;;;;;7.82;2.85;;;;;;;20.88;51.83;94194.78;4204552;28;20214;-76
2023/08/31 03:55:33;;;;;;;8.63;4.18;;;;;;;20.87;51.69;94193.19;4182979;28;20123;-74
2023/08/31 03:57:34;;;;;;;9.25;3.40;;;;;;;20.73;52.23;94197.94;4181361;28;20055;-77
2023/08/31 03:59:36;;;;;;;13.05;3.60;;;;;;;20.55;52.54;94200.72;4201774;28;20071;-76
2023/08/31 04:01:38;;;;;;;13.43;3.70;;;;;;;20.42;53.21;94207.91;4193205;28;20080;-75
2023/08/31 04:03:41;;;;;;;7.15;3.75;;;;;;;20.45;53.24;94219.91;4181569;28;20059;-76
2023/08/31 04:05:43;;;;;;;;;;;;;;;20.48;53.60;94223.97;4189540;28;20115;-76
2023/08/31 04:07:45;;;;;;;9.07;3.47;;;;;;;20.52;53.57;94227.78;4188973;28;19927;-76
2023/08/31 04:09:46;;;;;;;5.60;3.17;;;;;;;20.52;53.60;94230.44;4185115;28;20148;-79
2023/08/31 04:11:48;;;;;;;7.07;3.20;;;;;;;20.56;53.63;94239.59;4185961;28;20048;-78
2023/08/31 04:13:50;;;;;;;9.40;3.30;;;;;;;20.53;53.75;94240.88;4193824;28;20391;-77
2023/08/31 04:15:53;;;;;;;7.78;3.40;;;;;;;20.57;53.61;94250.03;4171209;28;20103;-78
2023/08/31 04:17:55;;;;;;;13.45;3.83;;;;;;;20.55;53.85;94245.97;4185433;28;20463;-79
2023/08/31 04:19:57;;;;;;;10.65;4.60;;;;;;;20.56;54.23;94247.56;4190802;28;20135;-78
2023/08/31 04:21:58;;;;;;;10.27;4.40;;;;;;;20.60;54.03;94251.41;4197211;28;20562;-77
2023/08/31 04:24:00;;;;;;;6.80;3.45;;;;;;;20.57;54.24;94257.19;4192081;28;20053;-75
2023/08/31 04:26:10;;;;;;;10.73;4.28;;;;;;;20.53;54.68;94258.69;4193052;28;20051;-76
2023/08/31 04:28:12;;;;;;;8.05;4.15;;;;;;;20.43;55.07;94251.28;4204398;28;20072;-77
2023/08/31 04:30:14;;;;;;;11.65;4.28;;;;;;;20.42;55.12;94263.78;4194831;28;20098;-76
2023/08/31 04:32:16;;;;;;;7.43;4.15;;;;;;;20.51;54.89;94263.44;4201024;28;20091;-78
2023/08/31 04:34:17;;;;;;;8.63;5.25;;;;;;;20.42;55.13;94266.44;4202439;28;20049;-76
2023/08/31 04:36:22;;;;;;;10.18;4.72;;;;;;;20.31;55.82;94264.56;4185921;28;20056;-77
2023/08/31 04:38:23;;;;;;;12.52;4.50;;;;;;;20.35;55.75;94259.59;4194901;28;20143;-77
2023/08/31 04:40:27;;;;;;;8.45;4.15;;;;;;;20.45;55.55;94267.81;4189581;28;20136;-78
2023/08/31 04:42:29;;;;;;;9.35;4.53;;;;;;;20.53;55.35;94272.78;4197778;28;20492;-78
2023/08/31 04:44:31;;;;;;;12.80;4.47;;;;;;;20.64;55.33;94274.66;4192747;28;20096;-80
2023/08/31 04:46:33;;;;;;;11.13;4.07;;;;;;;20.73;54.97;94266.34;4193878;28;20469;-77
2023/08/31 04:48:36;;;;;;;8.20;3.63;;;;;;;20.76;54.91;94277.34;4154400;28;20476;-77
2023/08/31 04:50:38;;;;;;;9.77;4.45;;;;;;;20.82;54.58;94280.91;4200990;28;20280;-76
2023/08/31 04:52:39;;;;;;;8.48;3.80;;;;;;;20.90;54.33;94277.91;4197210;28;20056;-77
2023/08/31 04:54:41;;;;;;;11.07;3.97;;;;;;;20.94;54.18;94272.94;4189806;28;20128;-77
2023/08/31 04:56:43;;;;;;;10.60;4.30;;;;;;;20.93;54.41;94271.28;4197268;28;20116;-75
2023/08/31 04:58:45;;;;;;;12.82;3.83;;;;;;;20.93;54.45;94274.78;4182176;28;20049;-77
2023/08/31 05:00:47;;;;;;;8.90;3.65;;;;;;;20.97;54.27;94264.47;4193519;28;20053;-76
2023/08/31 05:02:49;;;;;;;8.95;3.75;;;;;;;21.14;54.06;94265.34;4186772;28;20053;-75
2023/08/31 05:04:51;;;;;;;10.50;3.67;;;;;;;21.26;53.39;94276.78;4177636;28;20091;-77
2023/08/31 05:06:53;;;;;;;8.77;4.00;;;;;;;21.45;53.16;94287.31;4190993;28;20059;-78
2023/08/31 05:08:54;;;;;;;8.75;3.80;;;;;;;21.49;52.65;94280.47;4190945;28;20144;-77
2023/08/31 05:10:56;;;;;;;8.73;3.75;;;;;;;21.43;52.48;94279.56;4182023;28;20049;-76
2023/08/31 05:12:58;;;;;;;9.90;3.80;;;;;;;21.47;52.42;94278.03;4182095;28;20492;-75
2023/08/31 05:15:00;;;;;;;10.45;4.30;;;;;;;21.60;52.13;94276.97;4180338;28;20048;-77
2023/08/31 05:17:02;;;;;;;9.35;3.58;;;;;;;21.76;51.42;94282.56;4173162;28;20115;-75
2023/08/31 05:19:04;;;;;;;6.47;3.50;;;;;;;21.87;51.31;94276.38;4188785;28;20468;-77
2023/08/31 05:21:06;;;;;;;12.73;3.67;;;;;;;21.96;50.87;94272.28;4195109;28;20365;-76
2023/08/31 05:23:08;;;;;;;10.30;3.20;;;;;;;22.04;50.42;94276.41;4195597;28;20048;-77
2023/08/31 05:25:10;;;;;;;8.60;2.95;;;;;;;22.17;50.04;94277.97;4187146;28;20085;-76
2023/08/31 05:27:12;;;;;;;7.10;3.25;;;;;;;22.28;49.55;94277.09;4196771;28;20131;-76
2023/08/31 05:29:13;;;;;;;13.38;3.35;;;;;;;22.32;49.74;94280.91;4177704;28;20476;-78
2023/08/31 05:31:15;;;;;;;6.93;3.47;;;;;;;22.38;49.09;94274.59;4181930;28;20053;-76
2023/08/31 05:33:18;;;;;;;8.32;3.17;;;;;;;22.45;48.52;94271.75;4185808;28;20071;-77
2023/08/31 05:35:21;;;;;;;12.00;2.63;;;;;;;22.45;48.34;94272.56;4188466;28;20056;-78
2023/08/31 05:37:23;;;;;;;8.30;2.60;;;;;;;22.52;47.48;94268.94;4184509;28;20041;-79
2023/08/31 05:39:25;;;;;;;5.05;2.38;;;;;;;22.57;47.60;94269.81;4196354;28;20074;-77
2023/08/31 05:41:27;;;;;;;5.00;2.20;;;;;;;22.62;47.19;94277.09;4196896;28;20114;-76
2023/08/31 05:43:29;;;;;;;10.30;3.00;;;;;;;22.58;47.15;94274.09;4195444;28;20079;-80
2023/08/31 05:45:34;;;;;;;6.55;2.30;;;;;;;22.52;47.58;94271.59;4178040;28;20136;-76
2023/08/31 05:47:35;;;;;;;7.90;2.88;;;;;;;22.26;48.20;94272.03;4185139;28;20052;-76
2023/08/31 05:49:37;;;;;;;7.57;2.58;;;;;;;22.24;47.96;94271.47;4178151;28;20513;-78
2023/08/31 05:51:39;;;;;;;5.88;2.53;;;;;;;22.27;48.07;94270.97;4195971;28;20049;-77
2023/08/31 05:53:41;;;;;;;8.85;2.92;;;;;;;22.41;47.69;94270.63;4179084;28;20065;-83
2023/08/31 05:55:43;;;;;;;6.18;2.90;;;;;;;22.44;47.44;94268.28;4180539;28;20163;-78
2023/08/31 05:57:45;;;;;;;7.93;3.13;;;;;;;22.37;47.92;94265.00;4191286;28;20081;-76
2023/08/31 05:59:47;;;;;;;7.70;3.38;;;;;;;22.25;47.90;94262.38;4187541;28;20068;-80
2023/08/31 06:01:50;;;;;;;8.80;2.80;;;;;;;22.26;48.01;94272.03;4178388;28;20096;-80
2023/08/31 06:03:56;;;;;;;8.00;2.80;;;;;;;22.17;47.67;94270.75;4194219;28;20327;-77
2023/08/31 06:05:58;;;;;;;11.52;2.50;;;;;;;22.07;48.07;94275.94;4192208;28;20052;-74
2023/08/31 06:08:00;;;;;;;7.45;2.50;;;;;;;22.05;48.34;94276.16;4194986;28;20089;-76
2023/08/31 06:10:03;;;;;;;10.60;2.80;;;;;;;22.08;48.34;94286.34;4159417;28;20050;-76
2023/08/31 06:12:06;;;;;;;10.75;3.03;;;;;;;22.16;48.36;94281.69;4186477;28;20073;-76
2023/08/31 06:14:08;;;;;;;11.40;3.53;;;;;;;22.23;48.32;94290.38;4177185;28;20455;-75
2023/08/31 06:16:10;;;;;;;11.05;3.30;;;;;;;22.12;48.11;94285.88;4170225;28;20072;-74
2023/08/31 06:18:12;;;;;;;8.13;2.78;;;;;;;22.18;48.18;94287.59;4185259;28;20044;-77
2023/08/31 06:20:14;;;;;;;13.18;3.00;;;;;;;22.05;48.59;94291.38;4176995;28;20045;-75
2023/08/31 06:22:16;;;;;;;8.68;2.90;;;;;;;22.20;48.34;94290.81;4173668;28;20076;-73
2023/08/31 06:24:17;;;;;;;7.78;3.15;;;;;;;22.29;47.78;94289.41;4177471;28;20527;-75
2023/08/31 06:26:19;;;;;;;8.27;2.42;;;;;;;22.53;47.74;94297.25;4183127;28;20094;-76
2023/08/31 06:28:21;;;;;;;9.15;2.63;;;;;;;22.51;47.77;94304.69;4194478;28;20287;-76
2023/08/31 06:30:22;;;;;;;8.00;2.85;;;;;;;22.39;48.26;94302.91;4184083;28;20059;-76
2023/08/31 06:32:24;;;;;;;8.65;3.20;;;;;;;22.24;48.45;94306.13;4183763;28;20049;-75
2023/08/31 06:34:26;;;;;;;12.45;3.28;;;;;;;22.22;48.59;94308.25;4193573;28;20052;-77
2023/08/31 06:36:27;;;;;;;11.18;3.47;;;;;;;22.09;49.42;94313.81;4177478;28;20049;-76
2023/08/31 06:38:29;;;;;;;7.43;3.40;;;;;;;22.30;49.07;94317.69;4206558;28;20074;-75
2023/08/31 06:40:31;;;;;;;14.32;3.63;;;;;;;22.43;49.04;94313.91;4194798;28;20080;-76
2023/08/31 06:42:34;;;;;;;7.60;3.63;;;;;;;22.29;48.97;94314.22;4190247;28;20052;-74
2023/08/31 06:44:36;;;;;;;6.50;3.20;;;;;;;22.24;48.92;94322.16;4179028;28;20091;-75
2023/08/31 06:46:38;;;;;;;8.13;2.95;;;;;;;22.37;48.79;94322.88;4176864;28;20055;-74
2023/08/31 06:48:40;;;;;;;8.65;3.67;;;;;;;22.26;49.26;94314.72;4194788;28;20498;-73
2023/08/31 06:50:42;;;;;;;9.45;3.85;;;;;;;22.53;48.64;94323.94;4196786;28;20083;-78
2023/08/31 06:52:46;;;;;;;13.57;4.55;;;;;;;22.57;48.93;94325.88;4196391;28;20048;-73
2023/08/31 06:54:48;;;;;;;8.07;2.85;;;;;;;22.65;48.16;94330.00;4197871;28;20048;-79
2023/08/31 06:56:50;;;;;;;12.32;4.45;;;;;;;22.54;49.10;94322.88;4187107;28;20045;-75
2023/08/31 06:58:52;;;;;;;11.80;4.63;;;;;;;22.37;49.24;94326.38;4194420;28;20135;-72
2023/08/31 07:00:54;;;;;;;13.27;4.28;;;;;;;22.39;49.50;94326.94;4194751;28;20045;-75
2023/08/31 07:02:55;;;;;;;12.23;4.38;;;;;;;22.55;49.11;94321.84;4194502;28;20055;-75
2023/08/31 07:04:57;;;;;;;7.72;3.97;;;;;;;22.66;48.97;94318.28;4182882;28;20615;-81
2023/08/31 07:06:59;;;;;;;7.90;3.50;;;;;;;22.82;48.55;94325.47;4169547;28;20102;-75
2023/08/31 07:09:03;;;;;;;10.73;3.58;;;;;;;22.77;48.27;94322.72;4184563;28;20128;-77
2023/08/31 07:11:05;;;;;;;;;;;;;;;22.90;48.07;94326.91;4181993;28;20053;-75
2023/08/31 07:13:06;;;;;;;12.35;3.55;;;;;;;23.11;47.76;94330.72;4167147;28;19943;-74
2023/08/31 07:15:08;;;;;;;9.55;3.60;;;;;;;23.25;46.69;94328.50;4188104;28;20049;-75
2023/08/31 07:17:10;;;;;;;9.98;3.38;;;;;;;23.20;46.04;94331.09;4189617;28;20128;-74
2023/08/31 07:19:14;;;;;;;13.77;3.35;;;;;;;23.02;46.68;94324.19;4173668;28;20106;-75
2023/08/31 07:21:16;;;;;;;10.23;4.53;;;;;;;23.11;46.00;94328.06;4191469;28;20059;-73
2023/08/31 07:23:18;;;;;;;5.68;2.83;;;;;;;23.07;44.18;94332.25;4192897;28;20106;-73
2023/08/31 07:25:19;;;;;;;9.55;3.30;;;;;;;22.94;44.49;94333.38;4192671;28;20048;-73
2023/08/31 07:27:21;;;;;;;6.57;2.70;;;;;;;22.94;44.83;94330.72;4193100;28;20547;-73
2023/08/31 07:29:23;;;;;;;4.65;2.05;;;;;;;23.16;44.32;94327.31;4179052;28;20523;-73
2023/08/31 07:31:25;;;;;;;8.18;2.50;;;;;;;23.24;44.46;94329.56;4181296;28;20418;-73
2023/08/31 07:33:26;;;;;;;11.35;2.22;;;;;;;23.39;44.42;94331.63;4186318;28;20045;-74
2023/08/31 07:35:32;;;;;;;7.07;2.60;;;;;;;23.34;44.19;94332.38;4193371;28;20093;-74
2023/08/31 07:37:34;;;;;;;13.68;4.03;;;;;;;23.34;44.39;94328.88;4183092;28;20079;-75
2023/08/31 07:39:36;;;;;;;13.02;5.88;;;;;;;23.40;43.81;94330.56;4187259;28;20052;-76
2023/08/31 07:41:38;;;;;;;12.52;5.53;;;;;;;23.54;43.04;94329.13;4191166;28;20056;-74
2023/08/31 07:43:40;;;;;;;8.10;2.63;;;;;;;23.76;43.43;94334.50;4185821;28;20045;-75
2023/08/31 07:45:59;;;;;;;17.48;8.57;;;;;;;23.97;42.65;94343.56;4193153;28;20055;-76
2023/08/31 07:48:00;;;;;;;11.20;6.13;;;;;;;24.08;42.38;94345.28;4192252;28;20609;-76
2023/08/31 07:50:03;;;;;;;6.43;3.00;;;;;;;24.37;41.75;94334.34;4189526;28;20458;-76
2023/08/31 07:52:05;;;;;;;9.00;3.38;;;;;;;24.50;41.63;94328.59;4178896;28;20396;-87
2023/08/31 07:54:07;;;;;;;8.93;5.28;;;;;;;24.30;42.55;94333.72;4192874;28;20452;-78
2023/08/31 07:56:09;;;;;;;8.95;2.88;;;;;;;24.56;42.97;94350.84;4196002;28;20125;-76
2023/08/31 07:58:11;;;;;;;5.28;2.50;;;;;;;24.80;42.10;94340.63;4190079;28;20132;-79
2023/08/31 08:00:16;;;;;;;8.85;2.40;;;;;;;25.10;41.71;94340.03;4178128;28;20060;-81
2023/08/31 08:02:19;;;;;;;4.38;2.03;;;;;;;25.37;41.25;94346.38;4182941;28;20090;-80
2023/08/31 08:04:20;;;;;;;9.57;2.78;;;;;;;25.46;41.13;94345.59;4190314;28;20094;-79
2023/08/31 08:06:22;;;;;;;5.05;2.20;;;;;;;25.59;40.56;94336.28;4196049;28;20102;-76
2023/08/31 08:08:24;;;;;;;8.50;2.85;;;;;;;25.74;41.00;94335.53;4192291;28;20420;-74
2023/08/31 08:10:27;;;;;;;15.77;6.00;;;;;;;25.80;39.62;94347.91;4189901;28;20055;-78
2023/08/31 08:12:39;;;;;;;6.85;2.70;;;;;;;25.60;40.86;94351.31;4196466;28;20060;-86
2023/08/31 08:14:41;;;;;;;7.68;2.88;;;;;;;25.69;40.61;94344.38;4177800;28;20056;-81
2023/08/31 08:16:43;;;;;;;6.90;3.67;;;;;;;25.67;39.88;94345.72;4171886;28;20064;-75
2023/08/31 08:18:45;;;;;;;8.68;3.40;;;;;;;25.89;41.82;94343.66;4190676;28;20049;-75
2023/08/31 08:20:50;;;;;;;6.07;3.05;;;;;;;25.82;39.62;94347.66;4186966;28;20080;-75
2023/08/31 08:22:52;;;;;;;8.85;2.80;;;;;;;25.90;40.50;94350.66;4194437;28;20054;-76
2023/08/31 08:24:54;;;;;;;7.80;3.60;;;;;;;25.50;39.81;94345.91;4178453;28;20054;-77
2023/08/31 08:26:56;;;;;;;7.78;3.03;;;;;;;25.52;40.88;94346.44;4177416;28;20042;-73
2023/08/31 08:28:57;;;;;;;6.25;2.85;;;;;;;25.61;41.27;94347.56;4182498;28;20472;-76
2023/08/31 08:31:05;;;;;;;11.52;3.88;;;;;;;25.81;39.49;94335.28;4182647;28;20136;-77
2023/08/31 08:33:08;;;;;;;7.90;3.58;;;;;;;25.83;37.76;94349.25;4175059;28;20141;-75
2023/08/31 08:35:10;;;;;;;7.85;4.18;;;;;;;25.27;36.68;94349.78;4174517;28;20616;-76
2023/08/31 08:37:12;;;;;;;7.50;3.80;;;;;;;25.37;35.80;94346.38;4176533;28;20052;-74
2023/08/31 08:39:13;;;;;;;8.40;4.22;;;;;;;25.50;36.44;94349.38;4178355;28;20051;-74
2023/08/31 08:41:19;;;;;;;5.55;3.97;;;;;;;25.84;35.69;94340.16;4194100;28;20298;-76
2023/08/31 08:43:25;;;;;;;6.75;4.30;;;;;;;25.90;33.46;94344.50;4189664;28;20052;-76
2023/08/31 08:45:36;;;;;;;8.10;4.65;;;;;;;25.88;32.24;94341.25;4181309;28;20048;-74
2023/08/31 08:47:39;;;;;;;14.95;4.65;;;;;;;25.74;33.13;94355.13;4173957;28;20352;-77
2023/08/31 08:49:41;;;;;;;9.07;4.45;;;;;;;25.80;33.85;94341.75;4187341;28;20048;-78
2023/08/31 08:51:43;;;;;;;7.25;4.25;;;;;;;25.82;33.44;94340.41;4183830;28;20052;-74
2023/08/31 08:53:46;;;;;;;11.05;5.00;;;;;;;25.40;32.92;94343.16;4170860;28;20147;-76
2023/08/31 08:55:48;;;;;;;9.20;4.82;;;;;;;25.26;32.86;94348.19;4200077;28;20070;-76
2023/08/31 08:57:50;;;;;;;6.72;4.95;;;;;;;25.37;33.35;94347.19;4197440;28;20407;-78
2023/08/31 08:59:51;;;;;;;9.70;4.93;;;;;;;25.29;34.23;94348.47;4190961;28;20051;-79
2023/08/31 09:01:53;;;;;;;11.15;4.90;;;;;;;25.28;34.70;94352.22;4182635;28;20386;-74
2023/08/31 09:03:55;;;;;;;7.93;4.70;;;;;;;25.30;34.08;94351.97;4176620;28;20057;-75
2023/08/31 09:06:01;;;;;;;8.30;4.05;;;;;;;25.03;34.71;94346.66;4194910;28;20128;-74
2023/08/31 09:08:12;;;;;;;8.00;4.85;;;;;;;25.11;34.91;94351.56;4194883;28;20048;-75
2023/08/31 09:10:14;;;;;;;9.05;4.95;;;;;;;25.13;35.33;94352.09;4192272;28;20792;-77
2023/08/31 09:12:16;;;;;;;9.15;4.32;;;;;;;24.97;35.48;94345.00;4174807;28;20675;-76
2023/08/31 09:14:19;;;;;;;6.93;4.10;;;;;;;25.16;35.64;94343.53;4177691;28;20159;-74
2023/08/31 09:16:28;;;;;;;6.40;3.90;;;;;;;25.53;35.40;94342.69;4178392;28;20045;-75
2023/08/31 09:18:32;;;;;;;6.93;4.20;;;;;;;25.24;35.62;94351.13;4176854;28;20052;-76
2023/08/31 09:20:45;;;;;;;8.25;4.78;;;;;;;25.23;36.51;94344.16;4171472;28;20164;-75
2023/08/31 09:22:49;;;;;;;7.05;4.90;;;;;;;25.07;36.45;94350.44;4173688;28;20037;-76
2023/08/31 09:24:53;;;;;;;6.80;4.55;;;;;;;24.78;37.15;94333.88;4194001;28;20078;-77
2023/08/31 09:26:58;;;;;;;6.05;4.03;;;;;;;25.22;36.77;94339.84;4197495;28;20146;-74
2023/08/31 09:28:59;;;;;;;10.80;6.13;;;;;;;25.37;36.24;94341.00;4172614;28;20385;-76
2023/08/31 09:31:06;;;;;;;7.95;4.75;;;;;;;25.27;36.11;94342.53;4190553;28;20060;-77
2023/08/31 09:33:10;;;;;;;7.53;4.00;;;;;;;25.54;36.58;94344.31;4187428;28;20057;-77
2023/08/31 09:35:12;;;;;;;6.30;4.05;;;;;;;25.69;36.42;94344.38;4175338;28;20140;-73
2023/08/31 09:37:21;;;;;;;7.57;5.00;;;;;;;25.68;35.94;94340.09;4184316;28;20102;-76